createdAt,value
2016-06-18T00:00:37.145Z,0
2016-06-18T00:01:37.147Z,0
2016-06-18T00:02:37.168Z,0
2016-06-18T00:03:37.170Z,0
2016-06-18T00:04:36.596Z,0
2016-06-18T00:05:37.161Z,0
2016-06-18T00:06:37.150Z,0
2016-06-18T00:07:36.559Z,0
2016-06-18T00:08:37.157Z,0
2016-06-18T00:09:37.175Z,0
2016-06-18T00:10:36.554Z,0
2016-06-18T00:11:37.152Z,0
2016-06-18T00:12:37.171Z,0
2016-06-18T00:13:37.175Z,0
2016-06-18T00:14:37.162Z,0
2016-06-18T00:15:37.165Z,0
2016-06-18T00:16:37.153Z,0
2016-06-18T00:17:37.172Z,0
2016-06-18T00:18:37.160Z,0
2016-06-18T00:19:37.164Z,0
2016-06-18T00:20:37.167Z,0
2016-06-18T00:21:37.171Z,0
2016-06-18T00:22:37.159Z,0
2016-06-18T00:23:37.178Z,0
2016-06-18T00:24:37.182Z,0
2016-06-18T00:25:37.169Z,0
2016-06-18T00:26:37.188Z,0
2016-06-18T00:27:37.192Z,0
2016-06-18T00:28:37.179Z,0
2016-06-18T00:29:37.183Z,0
2016-06-18T00:30:37.186Z,0
2016-06-18T00:31:37.158Z,0
2016-06-18T00:32:37.194Z,0
2016-06-18T00:33:37.165Z,0
2016-06-18T00:34:37.169Z,0
2016-06-18T00:35:36.578Z,0
2016-06-18T00:36:37.191Z,0
2016-06-18T00:37:37.180Z,0
2016-06-18T00:38:37.183Z,0
2016-06-18T00:39:37.201Z,0
2016-06-18T00:40:37.190Z,0
2016-06-18T00:41:36.583Z,0
2016-06-18T00:42:37.181Z,0
2016-06-18T00:43:37.169Z,0
2016-06-18T00:44:37.172Z,0
2016-06-18T00:45:37.191Z,0
2016-06-18T00:46:37.178Z,0
2016-06-18T00:47:37.182Z,0
2016-06-18T00:48:37.185Z,0
2016-06-18T00:49:37.189Z,0
2016-06-18T00:50:37.192Z,0
2016-06-18T00:51:37.195Z,0
2016-06-18T00:52:37.185Z,0
2016-06-18T00:53:36.594Z,0
2016-06-18T00:54:37.206Z,0
2016-06-18T00:55:37.179Z,0
2016-06-18T00:56:37.198Z,0
2016-06-18T00:57:37.186Z,0
2016-06-18T00:58:36.595Z,0
2016-06-18T00:59:37.193Z,0
2016-06-18T01:00:37.196Z,0
2016-06-18T01:01:36.591Z,0
2016-06-18T01:02:36.563Z,0
2016-06-18T01:03:37.191Z,0
2016-06-18T01:04:37.210Z,0
2016-06-18T01:05:36.588Z,0
2016-06-18T01:06:36.592Z,0
2016-06-18T01:07:37.236Z,0
2016-06-18T01:08:36.599Z,0
2016-06-18T01:09:37.196Z,0
2016-06-18T01:10:37.199Z,0
2016-06-18T01:11:37.219Z,0
2016-06-18T01:12:36.598Z,0
2016-06-18T01:13:37.226Z,0
2016-06-18T01:14:37.214Z,0
2016-06-18T01:15:37.201Z,0
2016-06-18T01:16:37.204Z,0
2016-06-18T01:17:37.380Z,0
2016-06-18T01:18:37.196Z,0
2016-06-18T01:19:36.575Z,0
2016-06-18T01:20:37.218Z,0
2016-06-18T01:21:37.207Z,0
2016-06-18T01:22:37.210Z,0
2016-06-18T01:23:37.260Z,0
2016-06-18T01:24:37.218Z,0
2016-06-18T01:25:37.204Z,0
2016-06-18T01:26:36.614Z,0
2016-06-18T01:27:37.212Z,0
2016-06-18T01:28:37.215Z,0
2016-06-18T01:29:37.202Z,0
2016-06-18T01:30:35.988Z,0
2016-06-18T01:31:37.210Z,0
2016-06-18T01:32:37.213Z,0
2016-06-18T01:33:37.217Z,0
2016-06-18T01:34:37.205Z,0
2016-06-18T01:35:37.223Z,0
2016-06-18T01:36:37.211Z,0
2016-06-18T01:37:37.230Z,0
2016-06-18T01:38:37.219Z,0
2016-06-18T01:39:37.222Z,0
2016-06-18T01:40:37.210Z,0
2016-06-18T01:41:37.229Z,0
2016-06-18T01:42:36.592Z,0
2016-06-18T01:43:37.220Z,0
2016-06-18T01:44:37.223Z,0
2016-06-18T01:45:37.212Z,0
2016-06-18T01:46:37.216Z,0
2016-06-18T01:47:36.625Z,0
2016-06-18T01:48:37.268Z,0
2016-06-18T01:49:37.210Z,0
2016-06-18T01:50:37.230Z,0
2016-06-18T01:51:37.263Z,0
2016-06-18T01:52:37.204Z,0
2016-06-18T01:53:37.224Z,0
2016-06-18T01:54:36.652Z,0
2016-06-18T01:55:37.220Z,0
2016-06-18T01:56:37.226Z,0
2016-06-18T01:57:37.233Z,0
2016-06-18T01:58:37.240Z,0
2016-06-18T01:59:37.230Z,0
2016-06-18T02:00:37.249Z,0
2016-06-18T02:01:37.254Z,0
2016-06-18T02:02:37.259Z,0
2016-06-18T02:03:37.248Z,0
2016-06-18T02:04:37.267Z,0
2016-06-18T02:05:37.240Z,0
2016-06-18T02:06:37.244Z,0
2016-06-18T02:07:36.639Z,0
2016-06-18T02:08:37.252Z,0
2016-06-18T02:09:37.256Z,0
2016-06-18T02:10:37.259Z,0
2016-06-18T02:11:37.263Z,0
2016-06-18T02:12:37.267Z,0
2016-06-18T02:13:37.240Z,0
2016-06-18T02:14:37.243Z,0
2016-06-18T02:15:36.637Z,0
2016-06-18T02:16:37.250Z,0
2016-06-18T02:17:37.254Z,0
2016-06-18T02:18:36.663Z,0
2016-06-18T02:19:37.275Z,0
2016-06-18T02:20:37.248Z,0
2016-06-18T02:21:36.642Z,0
2016-06-18T02:22:37.271Z,0
2016-06-18T02:23:37.258Z,0
2016-06-18T02:24:37.278Z,0
2016-06-18T02:25:37.281Z,0
2016-06-18T02:26:37.254Z,0
2016-06-18T02:27:37.257Z,0
2016-06-18T02:28:37.275Z,0
2016-06-18T02:29:37.295Z,0
2016-06-18T02:30:37.252Z,0
2016-06-18T02:31:37.239Z,0
2016-06-18T02:32:37.259Z,0
2016-06-18T02:33:37.262Z,0
2016-06-18T02:34:36.671Z,0
2016-06-18T02:35:37.269Z,0
2016-06-18T02:36:37.289Z,0
2016-06-18T02:37:37.259Z,0
2016-06-18T02:38:37.248Z,0
2016-06-18T02:39:37.267Z,0
2016-06-18T02:40:37.256Z,0
2016-06-18T02:41:36.898Z,0
2016-06-18T02:42:37.293Z,0
2016-06-18T02:43:37.265Z,0
2016-06-18T02:44:37.269Z,0
2016-06-18T02:45:37.257Z,0
2016-06-18T02:46:37.290Z,0
2016-06-18T02:47:37.263Z,0
2016-06-18T02:48:36.689Z,0
2016-06-18T02:49:37.287Z,0
2016-06-18T02:50:37.257Z,0
2016-06-18T02:51:37.261Z,0
2016-06-18T02:52:37.281Z,0
2016-06-18T02:53:37.284Z,0
2016-06-18T02:54:37.271Z,0
2016-06-18T02:55:37.275Z,0
2016-06-18T02:56:36.653Z,0
2016-06-18T02:57:37.267Z,0
2016-06-18T02:58:37.302Z,0
2016-06-18T02:59:37.289Z,0
2016-06-18T03:00:37.261Z,0
2016-06-18T03:01:37.281Z,0
2016-06-18T03:02:37.284Z,0
2016-06-18T03:03:37.257Z,0
2016-06-18T03:04:37.275Z,0
2016-06-18T03:05:37.263Z,0
2016-06-18T03:06:37.298Z,0
2016-06-18T03:07:37.271Z,0
2016-06-18T03:08:37.289Z,0
2016-06-18T03:09:36.667Z,0
2016-06-18T03:10:36.077Z,0
2016-06-18T03:11:36.659Z,0
2016-06-18T03:12:37.272Z,0
2016-06-18T03:13:36.681Z,0
2016-06-18T03:14:37.262Z,0
2016-06-18T03:15:37.266Z,0
2016-06-18T03:16:36.692Z,0
2016-06-18T03:17:37.273Z,0
2016-06-18T03:18:37.262Z,0
2016-06-18T03:19:37.280Z,0
2016-06-18T03:20:37.268Z,0
2016-06-18T03:21:37.272Z,0
2016-06-18T03:22:37.291Z,5
2016-06-18T03:23:37.278Z,5
2016-06-18T03:24:37.282Z,5
2016-06-18T03:25:37.286Z,5
2016-06-18T03:26:37.289Z,5
2016-06-18T03:27:37.276Z,5
2016-06-18T03:28:37.280Z,5
2016-06-18T03:29:37.283Z,5
2016-06-18T03:30:37.271Z,5
2016-06-18T03:31:37.275Z,5
2016-06-18T03:32:36.684Z,5
2016-06-18T03:33:37.266Z,5
2016-06-18T03:34:37.270Z,10
2016-06-18T03:35:36.664Z,10
2016-06-18T03:36:37.276Z,10
2016-06-18T03:37:37.280Z,10
2016-06-18T03:38:36.690Z,10
2016-06-18T03:39:37.287Z,10
2016-06-18T03:40:37.291Z,10
2016-06-18T03:41:37.278Z,10
2016-06-18T03:42:36.078Z,15
2016-06-18T03:43:37.316Z,15
2016-06-18T03:44:37.289Z,15
2016-06-18T03:45:36.683Z,15
2016-06-18T03:46:37.295Z,20
2016-06-18T03:47:37.284Z,20
2016-06-18T03:48:37.287Z,20
2016-06-18T03:49:36.072Z,25
2016-06-18T03:50:37.934Z,35
2016-06-18T03:51:36.126Z,55
2016-06-18T03:52:37.301Z,70
2016-06-18T03:53:37.289Z,75
2016-06-18T03:54:37.292Z,85
2016-06-18T03:55:36.686Z,90
2016-06-18T03:56:37.315Z,90
2016-06-18T03:57:37.302Z,95
2016-06-18T03:58:37.306Z,100
2016-06-18T03:59:37.293Z,110
2016-06-18T04:00:36.688Z,115
2016-06-18T04:01:37.332Z,120
2016-06-18T04:02:37.289Z,125
2016-06-18T04:03:37.307Z,130
2016-06-18T04:04:37.296Z,140
2016-06-18T04:05:37.299Z,140
2016-06-18T04:06:37.286Z,135
2016-06-18T04:07:37.306Z,140
2016-06-18T04:08:37.310Z,145
2016-06-18T04:09:37.297Z,150
2016-06-18T04:10:37.302Z,160
2016-06-18T04:11:37.328Z,160
2016-06-18T04:12:36.713Z,165
2016-06-18T04:13:36.723Z,175
2016-06-18T04:14:37.340Z,180
2016-06-18T04:15:37.333Z,190
2016-06-18T04:16:37.324Z,195
2016-06-18T04:17:37.345Z,200
2016-06-18T04:18:37.366Z,205
2016-06-18T04:19:37.356Z,210
2016-06-18T04:20:37.361Z,215
2016-06-18T04:21:37.366Z,220
2016-06-18T04:22:37.354Z,225
2016-06-18T04:23:36.735Z,225
2016-06-18T04:24:37.363Z,225
2016-06-18T04:25:37.351Z,235
2016-06-18T04:26:37.355Z,240
2016-06-18T04:27:37.360Z,245
2016-06-18T04:28:37.363Z,245
2016-06-18T04:29:37.383Z,245
2016-06-18T04:30:37.387Z,250
2016-06-18T04:31:37.374Z,255
2016-06-18T04:32:37.393Z,250
2016-06-18T04:33:37.381Z,250
2016-06-18T04:34:36.790Z,260
2016-06-18T04:35:37.388Z,270
2016-06-18T04:36:37.392Z,280
2016-06-18T04:37:36.785Z,290
2016-06-18T04:38:37.414Z,300
2016-06-18T04:39:37.402Z,305
2016-06-18T04:40:37.405Z,305
2016-06-18T04:41:37.393Z,290
2016-06-18T04:42:37.412Z,290
2016-06-18T04:43:37.400Z,300
2016-06-18T04:44:37.419Z,305
2016-06-18T04:45:37.423Z,305
2016-06-18T04:46:37.411Z,310
2016-06-18T04:47:37.445Z,315
2016-06-18T04:48:37.433Z,240
2016-06-18T04:49:37.421Z,345
2016-06-18T04:50:37.440Z,350
2016-06-18T04:51:37.443Z,355
2016-06-18T04:52:37.432Z,355
2016-06-18T04:53:37.450Z,355
2016-06-18T04:54:36.844Z,365
2016-06-18T04:55:37.457Z,370
2016-06-18T04:56:37.460Z,375
2016-06-18T04:57:37.480Z,375
2016-06-18T04:58:37.467Z,380
2016-06-18T04:59:36.862Z,390
2016-06-18T05:00:37.474Z,400
2016-06-18T05:01:37.508Z,405
2016-06-18T05:02:37.481Z,410
2016-06-18T05:03:37.485Z,420
2016-06-18T05:04:37.488Z,410
2016-06-18T05:05:37.492Z,425
2016-06-18T05:06:37.511Z,425
2016-06-18T05:07:37.514Z,430
2016-06-18T05:08:37.533Z,450
2016-06-18T05:09:36.912Z,465
2016-06-18T05:10:37.524Z,490
2016-06-18T05:11:37.590Z,500
2016-06-18T05:12:36.938Z,500
2016-06-18T05:13:37.536Z,525
2016-06-18T05:14:37.538Z,545
2016-06-18T05:15:37.557Z,525
2016-06-18T05:16:36.951Z,550
2016-06-18T05:17:37.549Z,550
2016-06-18T05:18:37.553Z,255
2016-06-18T05:19:36.961Z,395
2016-06-18T05:20:37.559Z,490
2016-06-18T05:21:37.610Z,540
2016-06-18T05:22:37.597Z,245
2016-06-18T05:23:37.601Z,235
2016-06-18T05:24:37.605Z,155
2016-06-18T05:25:37.607Z,330
2016-06-18T05:26:37.627Z,225
2016-06-18T05:27:37.006Z,575
2016-06-18T05:28:37.009Z,600
2016-06-18T05:29:37.074Z,595
2016-06-18T05:30:37.641Z,595
2016-06-18T05:31:37.644Z,610
2016-06-18T05:32:37.663Z,285
2016-06-18T05:33:37.058Z,580
2016-06-18T05:34:37.669Z,605
2016-06-18T05:35:37.689Z,460
2016-06-18T05:36:37.693Z,615
2016-06-18T05:37:37.696Z,325
2016-06-18T05:38:37.090Z,645
2016-06-18T05:39:37.719Z,710
2016-06-18T05:40:37.723Z,735
2016-06-18T05:41:37.710Z,675
2016-06-18T05:42:37.714Z,630
2016-06-18T05:43:37.748Z,385
2016-06-18T05:44:37.736Z,460
2016-06-18T05:45:37.724Z,590
2016-06-18T05:46:37.774Z,655
2016-06-18T05:47:37.778Z,680
2016-06-18T05:48:37.156Z,670
2016-06-18T05:49:37.769Z,685
2016-06-18T05:50:37.788Z,700
2016-06-18T05:51:37.807Z,705
2016-06-18T05:52:37.185Z,695
2016-06-18T05:53:37.813Z,700
2016-06-18T05:54:37.817Z,710
2016-06-18T05:55:36.586Z,700
2016-06-18T05:56:37.824Z,685
2016-06-18T05:57:37.844Z,700
2016-06-18T05:58:37.222Z,765
2016-06-18T05:59:37.850Z,765
2016-06-18T06:00:37.838Z,750
2016-06-18T06:01:37.873Z,755
2016-06-18T06:02:37.861Z,745
2016-06-18T06:03:37.864Z,740
2016-06-18T06:04:37.883Z,380
2016-06-18T06:05:37.887Z,360
2016-06-18T06:06:37.891Z,315
2016-06-18T06:07:37.300Z,295
2016-06-18T06:08:37.912Z,335
2016-06-18T06:09:37.307Z,775
2016-06-18T06:10:37.326Z,435
2016-06-18T06:11:37.955Z,490
2016-06-18T06:12:37.317Z,300
2016-06-18T06:13:37.929Z,455
2016-06-18T06:14:37.980Z,710
2016-06-18T06:15:37.968Z,565
2016-06-18T06:16:37.987Z,575
2016-06-18T06:17:37.991Z,880
2016-06-18T06:18:38.010Z,740
2016-06-18T06:19:37.997Z,885
2016-06-18T06:20:38.017Z,575
2016-06-18T06:21:38.020Z,420
2016-06-18T06:22:38.007Z,485
2016-06-18T06:23:38.042Z,615
2016-06-18T06:24:37.452Z,900
2016-06-18T06:25:37.441Z,320
2016-06-18T06:26:37.444Z,280
2016-06-18T06:27:38.057Z,250
2016-06-18T06:28:38.062Z,225
2016-06-18T06:29:38.081Z,225
2016-06-18T06:30:38.102Z,235
2016-06-18T06:31:38.106Z,265
2016-06-18T06:32:38.125Z,315
2016-06-18T06:33:37.504Z,410
2016-06-18T06:34:38.117Z,420
2016-06-18T06:35:38.136Z,855
2016-06-18T06:36:38.140Z,800
2016-06-18T06:37:38.190Z,1010
2016-06-18T06:38:38.178Z,985
2016-06-18T06:39:38.166Z,920
2016-06-18T06:40:37.545Z,1005
2016-06-18T06:41:38.205Z,1035
2016-06-18T06:42:38.192Z,765
2016-06-18T06:43:38.196Z,855
2016-06-18T06:44:37.589Z,1010
2016-06-18T06:45:37.593Z,870
2016-06-18T06:46:38.222Z,240
2016-06-18T06:47:38.225Z,455
2016-06-18T06:48:38.228Z,1020
2016-06-18T06:49:38.232Z,1050
2016-06-18T06:50:38.299Z,1140
2016-06-18T06:51:37.661Z,1125
2016-06-18T06:52:38.274Z,1070
2016-06-18T06:53:38.292Z,1105
2016-06-18T06:54:38.296Z,1065
2016-06-18T06:55:38.300Z,1055
2016-06-18T06:56:38.319Z,1040
2016-06-18T06:57:38.323Z,985
2016-06-18T06:58:38.341Z,1010
2016-06-18T06:59:38.344Z,745
2016-06-18T07:00:38.348Z,1060
2016-06-18T07:01:37.759Z,1140
2016-06-18T07:02:37.762Z,1125
2016-06-18T07:03:38.391Z,1140
2016-06-18T07:04:38.408Z,1185
2016-06-18T07:05:37.818Z,1175
2016-06-18T07:06:38.416Z,1110
2016-06-18T07:07:38.435Z,1165
2016-06-18T07:08:37.829Z,1150
2016-06-18T07:09:38.442Z,1210
2016-06-18T07:10:38.445Z,1255
2016-06-18T07:11:38.480Z,1245
2016-06-18T07:12:38.484Z,1270
2016-06-18T07:13:38.471Z,1230
2016-06-18T07:14:38.507Z,1140
2016-06-18T07:15:38.509Z,1360
2016-06-18T07:16:38.544Z,1475
2016-06-18T07:17:38.578Z,1430
2016-06-18T07:18:38.535Z,1535
2016-06-18T07:19:37.961Z,1480
2016-06-18T07:20:38.575Z,685
2016-06-18T07:21:38.577Z,625
2016-06-18T07:22:38.596Z,1375
2016-06-18T07:23:37.990Z,780
2016-06-18T07:24:38.603Z,445
2016-06-18T07:25:38.637Z,390
2016-06-18T07:26:38.657Z,440
2016-06-18T07:27:38.677Z,435
2016-06-18T07:28:38.054Z,430
2016-06-18T07:29:38.683Z,345
2016-06-18T07:30:38.686Z,295
2016-06-18T07:31:38.690Z,275
2016-06-18T07:32:38.100Z,270
2016-06-18T07:33:38.712Z,270
2016-06-18T07:34:38.716Z,275
2016-06-18T07:35:38.735Z,295
2016-06-18T07:36:38.755Z,290
2016-06-18T07:37:38.758Z,305
2016-06-18T07:38:38.761Z,320
2016-06-18T07:39:38.780Z,345
2016-06-18T07:40:38.799Z,410
2016-06-18T07:41:38.803Z,405
2016-06-18T07:42:38.806Z,415
2016-06-18T07:43:38.215Z,490
2016-06-18T07:44:38.203Z,475
2016-06-18T07:45:38.816Z,1665
2016-06-18T07:46:38.210Z,1035
2016-06-18T07:47:38.855Z,1505
2016-06-18T07:48:38.874Z,755
2016-06-18T07:49:38.252Z,830
2016-06-18T07:50:38.896Z,950
2016-06-18T07:51:38.900Z,1240
2016-06-18T07:52:38.293Z,980
2016-06-18T07:53:38.922Z,775
2016-06-18T07:54:38.941Z,830
2016-06-18T07:55:38.929Z,1380
2016-06-18T07:56:38.932Z,870
2016-06-18T07:57:38.342Z,640
2016-06-18T07:58:38.971Z,1110
2016-06-18T07:59:38.959Z,920
2016-06-18T08:00:38.993Z,1335
2016-06-18T08:01:38.981Z,1390
2016-06-18T08:02:38.984Z,705
2016-06-18T08:03:39.004Z,805
2016-06-18T08:04:39.022Z,480
2016-06-18T08:05:39.042Z,560
2016-06-18T08:06:39.045Z,675
2016-06-18T08:07:39.032Z,745
2016-06-18T08:08:39.036Z,695
2016-06-18T08:09:39.086Z,940
2016-06-18T08:10:39.043Z,850
2016-06-18T08:11:39.078Z,865
2016-06-18T08:12:37.879Z,885
2016-06-18T08:13:39.101Z,920
2016-06-18T08:14:39.119Z,1105
2016-06-18T08:15:38.515Z,810
2016-06-18T08:16:38.517Z,890
2016-06-18T08:17:39.192Z,620
2016-06-18T08:18:39.180Z,1295
2016-06-18T08:19:39.169Z,1010
2016-06-18T08:20:39.157Z,1115
2016-06-18T08:21:39.175Z,555
2016-06-18T08:22:39.178Z,495
2016-06-18T08:23:38.604Z,935
2016-06-18T08:24:38.607Z,810
2016-06-18T08:25:39.252Z,775
2016-06-18T08:26:39.240Z,645
2016-06-18T08:27:39.259Z,570
2016-06-18T08:28:39.262Z,510
2016-06-18T08:29:39.280Z,700
2016-06-18T08:30:39.284Z,620
2016-06-18T08:31:39.304Z,650
2016-06-18T08:32:39.307Z,725
2016-06-18T08:33:39.327Z,580
2016-06-18T08:34:39.314Z,975
2016-06-18T08:35:39.333Z,715
2016-06-18T08:36:38.743Z,525
2016-06-18T08:37:39.355Z,505
2016-06-18T08:38:39.359Z,435
2016-06-18T08:39:38.768Z,430
2016-06-18T08:40:39.382Z,465
2016-06-18T08:41:39.385Z,445
2016-06-18T08:42:39.403Z,415
2016-06-18T08:43:39.441Z,645
2016-06-18T08:47:15.703Z,420
2016-06-18T08:47:26.984Z,445
2016-06-18T08:47:38.844Z,460
2016-06-18T08:48:38.288Z,500
2016-06-18T08:49:38.888Z,470
2016-06-18T08:50:38.893Z,470
2016-06-18T08:51:38.289Z,435
2016-06-18T08:52:38.309Z,455
2016-06-18T08:53:38.955Z,570
2016-06-18T08:54:38.927Z,510
2016-06-18T08:55:37.713Z,475
2016-06-18T08:56:38.325Z,465
2016-06-18T08:57:38.985Z,445
2016-06-18T08:58:38.364Z,425
2016-06-18T08:59:38.384Z,415
2016-06-18T09:00:38.371Z,370
2016-06-18T09:01:38.986Z,380
2016-06-18T09:02:39.021Z,370
2016-06-18T09:03:39.023Z,375
2016-06-18T09:04:39.027Z,375
2016-06-18T09:05:37.859Z,375
2016-06-18T09:06:39.050Z,365
2016-06-18T09:07:39.053Z,355
2016-06-18T09:08:39.057Z,345
2016-06-18T09:09:38.467Z,335
2016-06-18T09:10:38.501Z,330
2016-06-18T09:11:38.457Z,325
2016-06-18T09:12:38.477Z,330
2016-06-18T09:13:39.106Z,330
2016-06-18T09:14:39.093Z,325
2016-06-18T09:15:38.503Z,325
2016-06-18T09:16:39.116Z,320
2016-06-18T09:17:39.136Z,315
2016-06-18T09:20:19.269Z,315
2016-06-18T09:21:20.381Z,315
2016-06-18T09:22:20.400Z,320
2016-06-18T09:23:19.810Z,325
2016-06-18T09:24:20.408Z,330
2016-06-18T09:25:19.786Z,330
2016-06-18T09:26:20.414Z,340
2016-06-18T09:27:19.809Z,340
2016-06-18T09:28:20.641Z,345
2016-06-18T09:29:20.425Z,355
2016-06-18T09:30:18.959Z,360
2016-06-18T09:31:20.495Z,365
2016-06-18T09:32:20.374Z,365
2016-06-18T09:33:19.767Z,360
2016-06-18T09:34:20.411Z,365
2016-06-18T09:35:20.431Z,380
2016-06-18T09:36:20.418Z,385
2016-06-18T09:37:20.421Z,375
2016-06-18T09:38:20.409Z,370
2016-06-18T09:39:20.460Z,365
2016-06-18T09:40:20.838Z,355
2016-06-18T09:41:19.827Z,360
2016-06-18T09:42:20.455Z,355
2016-06-18T09:43:20.630Z,350
2016-06-18T09:44:20.461Z,355
2016-06-18T09:45:20.465Z,355
2016-06-18T09:46:19.875Z,345
2016-06-18T09:47:20.550Z,335
2016-06-18T09:48:20.521Z,320
2016-06-18T09:49:20.650Z,295
2016-06-18T09:50:20.497Z,280
2016-06-18T09:51:20.517Z,280
2016-06-18T09:52:19.974Z,265
2016-06-18T09:53:20.524Z,275
2016-06-18T09:54:20.542Z,275
2016-06-18T09:55:20.546Z,280
2016-06-18T09:56:20.549Z,280
2016-06-18T09:57:20.553Z,275
2016-06-18T09:58:20.588Z,275
2016-06-18T09:59:20.575Z,275
2016-06-18T10:00:20.595Z,280
2016-06-18T10:01:20.035Z,270
2016-06-18T10:02:20.852Z,270
2016-06-18T10:03:20.652Z,280
2016-06-18T10:04:20.609Z,290
2016-06-18T10:05:20.612Z,295
2016-06-18T10:06:20.600Z,295
2016-06-18T10:07:20.634Z,300
2016-06-18T10:08:19.420Z,305
2016-06-18T10:09:20.658Z,300
2016-06-18T10:10:20.630Z,305
2016-06-18T10:11:20.648Z,305
2016-06-18T10:12:20.840Z,300
2016-06-18T10:13:20.077Z,305
2016-06-18T10:14:20.065Z,310
2016-06-18T10:15:20.677Z,315
2016-06-18T10:16:20.681Z,315
2016-06-18T10:17:20.685Z,305
2016-06-18T10:18:20.704Z,300
2016-06-18T10:19:20.723Z,295
2016-06-18T10:20:20.696Z,295
2016-06-18T10:21:20.808Z,300
2016-06-18T10:22:20.749Z,305
2016-06-18T10:23:20.128Z,305
2016-06-18T10:24:20.740Z,310
2016-06-18T10:25:20.165Z,310
2016-06-18T10:26:20.793Z,300
2016-06-18T10:27:20.782Z,295
2016-06-18T10:28:20.769Z,290
2016-06-18T10:29:20.773Z,285
2016-06-18T10:30:20.776Z,280
2016-06-18T10:31:20.796Z,275
2016-06-18T10:32:20.783Z,265
2016-06-18T10:33:20.803Z,255
2016-06-18T10:34:20.806Z,245
2016-06-18T10:35:20.810Z,240
2016-06-18T10:36:20.860Z,230
2016-06-18T10:37:20.206Z,220
2016-06-18T10:38:20.210Z,215
2016-06-18T10:39:20.839Z,200
2016-06-18T10:40:20.858Z,200
2016-06-18T10:41:20.830Z,200
2016-06-18T10:42:20.849Z,205
2016-06-18T10:43:20.852Z,205
2016-06-18T10:44:20.855Z,200
2016-06-18T10:45:20.267Z,180
2016-06-18T10:46:20.270Z,160
2016-06-18T10:47:20.273Z,150
2016-06-18T10:48:20.291Z,140
2016-06-18T10:49:20.889Z,135
2016-06-18T10:50:20.909Z,130
2016-06-18T10:51:20.912Z,130
2016-06-18T10:52:20.322Z,130
2016-06-18T10:53:19.715Z,125
2016-06-18T10:54:20.923Z,125
2016-06-18T10:55:20.941Z,145
2016-06-18T10:56:20.335Z,145
2016-06-18T10:57:20.948Z,170
2016-06-18T10:58:20.967Z,175
2016-06-18T10:59:20.361Z,170
2016-06-18T11:00:20.990Z,175
2016-06-18T11:01:20.993Z,165
2016-06-18T11:02:20.981Z,160
2016-06-18T11:03:20.985Z,155
2016-06-18T11:04:20.394Z,135
2016-06-18T11:05:21.007Z,125
2016-06-18T11:06:21.010Z,140
2016-06-18T11:07:21.030Z,145
2016-06-18T11:08:21.002Z,135
2016-06-18T11:09:21.021Z,125
2016-06-18T11:10:20.415Z,130
2016-06-18T11:11:21.027Z,145
2016-06-18T11:12:20.422Z,160
2016-06-18T11:13:19.831Z,150
2016-06-18T11:14:21.037Z,145
2016-06-18T11:15:21.041Z,145
2016-06-18T11:16:21.076Z,140
2016-06-18T11:17:21.064Z,140
2016-06-18T11:18:21.099Z,130
2016-06-18T11:19:21.055Z,130
2016-06-18T11:20:20.465Z,130
2016-06-18T11:21:21.078Z,140
2016-06-18T11:22:21.082Z,140
2016-06-18T11:23:19.881Z,145
2016-06-18T11:24:19.886Z,155
2016-06-18T11:25:20.559Z,160
2016-06-18T11:26:21.125Z,170
2016-06-18T11:27:20.519Z,160
2016-06-18T11:28:20.522Z,155
2016-06-18T11:29:21.135Z,150
2016-06-18T11:30:20.529Z,145
2016-06-18T11:31:21.126Z,145
2016-06-18T11:32:21.146Z,150
2016-06-18T11:33:21.165Z,145
2016-06-18T11:34:20.543Z,160
2016-06-18T11:41:22.979Z,165
2016-06-18T11:42:22.967Z,170
2016-06-18T11:43:22.955Z,170
2016-06-18T11:44:22.959Z,175
2016-06-18T11:45:21.728Z,175
2016-06-18T11:46:22.981Z,180
2016-06-18T11:47:22.970Z,180
2016-06-18T11:48:22.972Z,175
2016-06-18T11:49:37.695Z,170
2016-06-18T11:50:22.995Z,170
2016-06-18T11:51:22.983Z,175
2016-06-18T11:52:22.987Z,185
2016-06-18T11:53:23.021Z,190
2016-06-18T11:54:23.010Z,190
2016-06-18T11:55:23.028Z,195
2016-06-18T11:56:21.814Z,195
2016-06-18T11:57:22.395Z,205
2016-06-18T11:58:23.024Z,225
2016-06-18T11:59:23.029Z,215
2016-06-18T12:00:23.017Z,225
2016-06-18T12:01:23.038Z,210
2016-06-18T12:02:22.464Z,215
2016-06-18T12:03:23.046Z,205
2016-06-18T12:04:23.066Z,190
2016-06-18T12:05:22.444Z,195
2016-06-18T12:06:22.464Z,195
2016-06-18T12:07:23.062Z,190
2016-06-18T12:08:21.863Z,200
2016-06-18T12:09:23.084Z,200
2016-06-18T12:10:22.479Z,200
2016-06-18T12:11:23.091Z,200
2016-06-18T12:12:23.111Z,205
2016-06-18T12:13:23.114Z,215
2016-06-18T12:14:23.101Z,215
2016-06-18T12:15:21.918Z,210
2016-06-18T12:16:23.141Z,215
2016-06-18T12:17:23.112Z,215
2016-06-18T12:18:23.274Z,220
2016-06-18T12:19:23.167Z,220
2016-06-18T12:20:23.140Z,210
2016-06-18T12:21:23.191Z,195
2016-06-18T12:22:22.538Z,205
2016-06-18T12:23:23.150Z,200
2016-06-18T12:24:23.154Z,185
2016-06-18T12:25:23.174Z,195
2016-06-18T12:26:23.177Z,190
2016-06-18T12:27:23.180Z,190
2016-06-18T12:28:23.199Z,180
2016-06-18T12:29:23.172Z,175
2016-06-18T12:30:23.191Z,175
2016-06-18T12:31:23.194Z,175
2016-06-18T12:32:23.197Z,170
2016-06-18T12:33:21.997Z,160
2016-06-18T12:34:23.204Z,145
2016-06-18T12:35:22.614Z,140
2016-06-18T12:36:23.274Z,135
2016-06-18T12:37:23.215Z,135
2016-06-18T12:38:22.609Z,130
2016-06-18T12:39:22.643Z,130
2016-06-18T12:40:23.241Z,125
2016-06-18T12:41:23.260Z,125
2016-06-18T12:42:23.278Z,125
2016-06-18T12:43:22.657Z,120
2016-06-18T12:44:23.255Z,120
2016-06-18T12:45:23.258Z,130
2016-06-18T12:46:22.667Z,140
2016-06-18T12:47:22.671Z,135
2016-06-18T12:48:23.299Z,120
2016-06-18T12:49:23.303Z,125
2016-06-18T12:50:23.291Z,125
2016-06-18T12:51:23.310Z,125
2016-06-18T12:52:22.705Z,125
2016-06-18T12:53:23.318Z,120
2016-06-18T12:54:23.321Z,120
2016-06-18T12:55:23.310Z,120
2016-06-18T12:56:23.329Z,125
2016-06-18T12:57:22.740Z,130
2016-06-18T12:58:22.743Z,135
2016-06-18T12:59:23.371Z,135
2016-06-18T13:00:22.765Z,140
2016-06-18T13:01:22.800Z,150
2016-06-18T13:02:22.757Z,155
2016-06-18T13:03:22.760Z,160
2016-06-18T13:04:23.356Z,160
2016-06-18T13:05:23.376Z,155
2016-06-18T13:06:22.770Z,165
2016-06-18T13:07:22.774Z,160
2016-06-18T13:08:23.386Z,140
2016-06-18T13:09:23.390Z,145
2016-06-18T13:10:22.190Z,140
2016-06-18T13:11:22.788Z,130
2016-06-18T13:12:23.416Z,130
2016-06-18T13:13:22.217Z,125
2016-06-18T13:14:22.813Z,125
2016-06-18T13:15:23.457Z,125
2016-06-18T13:16:22.836Z,125
2016-06-18T13:17:23.433Z,130
2016-06-18T13:18:23.436Z,135
2016-06-18T13:19:23.471Z,140
2016-06-18T13:20:23.444Z,145
2016-06-18T13:21:23.462Z,145
2016-06-18T13:22:23.466Z,140
2016-06-18T13:23:23.455Z,150
2016-06-18T13:24:23.474Z,150
2016-06-18T13:25:23.479Z,155
2016-06-18T13:26:23.483Z,160
2016-06-18T13:27:23.488Z,160
2016-06-18T13:28:22.883Z,160
2016-06-18T13:29:23.496Z,170
2016-06-18T13:30:23.500Z,170
2016-06-18T13:31:23.504Z,170
2016-06-18T13:32:23.540Z,170
2016-06-18T13:33:22.918Z,175
2016-06-18T13:34:23.532Z,170
2016-06-18T13:35:23.536Z,170
2016-06-18T13:36:23.539Z,170
2016-06-18T13:37:23.574Z,170
2016-06-18T13:38:22.937Z,165
2016-06-18T13:39:23.566Z,160
2016-06-18T13:40:23.569Z,155
2016-06-18T13:41:22.963Z,150
2016-06-18T13:42:22.951Z,150
2016-06-18T13:43:22.970Z,155
2016-06-18T13:44:22.990Z,160
2016-06-18T13:45:23.602Z,165
2016-06-18T13:46:23.575Z,165
2016-06-18T13:47:23.594Z,150
2016-06-18T13:48:23.612Z,135
2016-06-18T13:49:23.601Z,120
2016-06-18T13:50:23.604Z,110
2016-06-18T13:51:23.623Z,105
2016-06-18T13:52:23.657Z,100
2016-06-18T13:53:22.396Z,100
2016-06-18T13:54:23.633Z,100
2016-06-18T13:55:22.417Z,100
2016-06-18T13:56:23.625Z,100
2016-06-18T13:57:23.643Z,105
2016-06-18T13:58:23.645Z,105
2016-06-18T13:59:23.648Z,100
2016-06-18T14:00:23.650Z,95
2016-06-18T14:01:23.668Z,85
2016-06-18T14:02:23.685Z,75
2016-06-18T14:03:23.658Z,70
2016-06-18T14:04:23.864Z,60
2016-06-18T14:05:23.680Z,55
2016-06-18T14:06:23.683Z,50
2016-06-18T14:07:23.062Z,45
2016-06-18T14:08:23.079Z,45
2016-06-18T14:09:23.693Z,40